createdAt,value
2023-02-22T00:01:08.417Z,3.70
2023-02-22T00:03:39.540Z,3.30
2023-02-22T00:06:18.977Z,3.40
2023-02-22T00:08:50.012Z,3.30
2023-02-22T00:11:18.853Z,3.10
2023-02-22T00:13:47.470Z,3.00
2023-02-22T00:16:17.940Z,2.90
2023-02-22T00:18:47.208Z,2.80
2023-02-22T00:21:18.903Z,2.60
2023-02-22T00:23:49.499Z,2.50
2023-02-22T00:26:20.049Z,2.30
2023-02-22T00:28:50.099Z,2.20
2023-02-22T00:31:19.121Z,2.20
2023-02-22T00:33:47.927Z,2.10
2023-02-22T00:36:17.941Z,2.00
2023-02-22T00:38:46.550Z,1.90
2023-02-22T00:41:15.590Z,1.90
2023-02-22T00:43:44.242Z,1.80
2023-02-22T00:46:14.961Z,1.80
2023-02-22T00:48:43.701Z,1.70
2023-02-22T00:51:12.309Z,1.80
2023-02-22T00:53:42.406Z,1.70
2023-02-22T00:56:11.750Z,1.70
2023-02-22T00:58:40.294Z,1.60
2023-02-22T01:01:08.919Z,1.50
2023-02-22T01:03:41.521Z,1.50
2023-02-22T01:06:10.358Z,1.50
2023-02-22T01:08:38.903Z,1.50
2023-02-22T01:11:08.990Z,1.60
2023-02-22T01:13:37.528Z,1.70
2023-02-22T01:16:08.565Z,1.80
2023-02-22T01:18:37.207Z,1.80
2023-02-22T01:21:06.837Z,1.80
2023-02-22T01:23:36.048Z,1.70
2023-02-22T01:26:06.218Z,1.80
2023-02-22T01:28:36.604Z,1.80
2023-02-22T01:31:05.575Z,1.80
2023-02-22T01:33:35.254Z,2.00
2023-02-22T01:36:03.932Z,2.20
2023-02-22T01:38:32.574Z,2.20
2023-02-22T01:41:01.153Z,2.20
2023-02-22T01:43:31.859Z,2.10
2023-02-22T01:46:03.905Z,2.10
2023-02-22T01:48:41.882Z,2.10
2023-02-22T01:51:15.035Z,2.10
2023-02-22T01:53:49.387Z,2.10
2023-02-22T01:56:19.476Z,2.20
2023-02-22T01:58:59.775Z,2.30
2023-02-22T02:01:30.918Z,2.60
2023-02-22T02:04:02.972Z,2.50
2023-02-22T02:06:50.859Z,2.50
2023-02-22T02:09:27.344Z,2.70
2023-02-22T02:11:56.398Z,2.70
2023-02-22T02:14:26.854Z,2.80
2023-02-22T02:16:57.598Z,2.90
2023-02-22T02:19:42.754Z,3.00
2023-02-22T02:22:34.891Z,3.10
2023-02-22T02:25:54.424Z,3.10
2023-02-22T02:29:08.660Z,3.20
2023-02-22T02:32:18.142Z,3.20
2023-02-22T02:34:53.066Z,3.20
2023-02-22T02:37:26.394Z,3.20
2023-02-22T02:40:00.601Z,3.20
2023-02-22T02:42:35.515Z,3.20
2023-02-22T02:45:10.971Z,3.20
2023-02-22T02:47:48.618Z,3.10
2023-02-22T02:50:23.075Z,3.10
2023-02-22T02:52:54.421Z,3.10
2023-02-22T02:55:23.579Z,3.10
2023-02-22T02:57:52.787Z,3.10
2023-02-22T03:00:27.261Z,3.10
2023-02-22T03:03:08.719Z,3.10
2023-02-22T03:05:59.716Z,3.10
2023-02-22T03:08:36.106Z,2.90
2023-02-22T03:11:15.639Z,2.90
2023-02-22T03:13:53.132Z,2.80
2023-02-22T03:16:30.154Z,2.70
2023-02-22T03:19:07.809Z,2.80
2023-02-22T03:21:43.681Z,2.90
2023-02-22T03:24:20.269Z,2.90
2023-02-22T03:26:54.912Z,2.90
2023-02-22T03:29:26.557Z,2.90
2023-02-22T03:32:01.656Z,2.90
2023-02-22T03:34:35.778Z,3.00
2023-02-22T03:37:09.644Z,3.00
2023-02-22T03:39:39.812Z,3.00
2023-02-22T03:42:14.145Z,3.00
2023-02-22T03:44:45.203Z,2.90
2023-02-22T03:47:19.335Z,2.90
2023-02-22T03:49:54.368Z,3.00
2023-02-22T03:52:23.669Z,3.00
2023-02-22T03:54:53.869Z,3.00
2023-02-22T03:57:27.056Z,2.90
2023-02-22T03:59:55.777Z,2.80
2023-02-22T04:02:25.336Z,2.70
2023-02-22T04:04:55.417Z,2.60
2023-02-22T04:10:11.354Z,2.50
2023-02-22T04:12:40.426Z,2.40
2023-02-22T04:15:10.612Z,2.40
2023-02-22T04:17:39.547Z,2.30
2023-02-22T04:20:11.900Z,2.30
2023-02-22T04:22:40.587Z,2.40
2023-02-22T04:25:09.730Z,2.40
2023-02-22T04:27:38.344Z,2.30
2023-02-22T04:30:07.776Z,2.30
2023-02-22T04:32:36.512Z,2.20
2023-02-22T04:35:05.252Z,2.10
2023-02-22T04:37:35.276Z,2.10
2023-02-22T04:40:07.911Z,2.10
2023-02-22T04:42:36.794Z,2.10
2023-02-22T04:45:08.143Z,2.10
2023-02-22T04:47:36.776Z,2.20
2023-02-22T04:50:06.297Z,2.10
2023-02-22T04:52:36.275Z,2.10
2023-02-22T04:55:05.318Z,2.10
2023-02-22T04:57:33.865Z,2.10
2023-02-22T05:00:02.442Z,2.20
2023-02-22T05:02:31.078Z,2.20
2023-02-22T05:04:59.748Z,2.20
2023-02-22T05:07:28.367Z,2.20
2023-02-22T05:09:58.332Z,2.20
2023-02-22T05:12:29.218Z,2.20
2023-02-22T05:14:57.912Z,2.20
2023-02-22T05:17:26.542Z,2.00
2023-02-22T05:19:55.084Z,2.20
2023-02-22T05:22:24.691Z,2.20
2023-02-22T05:24:53.632Z,2.20
2023-02-22T05:27:23.717Z,2.20
2023-02-22T05:29:52.454Z,2.20
2023-02-22T05:32:21.600Z,2.30
2023-02-22T05:34:50.151Z,2.20
2023-02-22T05:37:18.788Z,2.30
2023-02-22T05:39:47.808Z,2.20
2023-02-22T05:42:16.356Z,2.20
2023-02-22T05:44:46.379Z,2.30
2023-02-22T05:47:15.005Z,2.30
2023-02-22T05:49:43.547Z,2.30
2023-02-22T05:52:12.170Z,2.30
2023-02-22T05:54:40.834Z,2.30
2023-02-22T07:11:11.042Z,2.70
2023-02-22T07:13:39.734Z,2.80
2023-02-22T07:23:58.202Z,2.80
2023-02-22T07:26:29.736Z,3.00
2023-02-22T07:28:58.341Z,3.00
2023-02-22T07:31:29.561Z,3.20
2023-02-22T07:33:58.488Z,3.10
2023-02-22T07:36:27.143Z,3.30
2023-02-22T07:38:55.794Z,3.30
2023-02-22T07:41:24.561Z,3.40
2023-02-22T07:43:54.666Z,3.50
2023-02-22T07:46:23.353Z,3.60
2023-02-22T07:48:52.031Z,3.60
2023-02-22T07:51:20.978Z,3.70
2023-02-22T07:53:50.566Z,3.80
2023-02-22T07:56:19.194Z,3.80
2023-02-22T07:58:47.743Z,3.70
2023-02-22T08:01:18.214Z,3.70
2023-02-22T08:03:47.815Z,3.80
2023-02-22T08:06:16.708Z,3.90
2023-02-22T08:08:45.528Z,4.00
2023-02-22T08:11:14.836Z,4.00
2023-02-22T08:13:43.799Z,4.10
2023-02-22T08:16:14.452Z,4.20
2023-02-22T08:18:44.489Z,4.40
2023-02-22T08:21:13.069Z,4.50
2023-02-22T08:23:44.823Z,4.50
2023-02-22T08:26:18.696Z,4.50
2023-02-22T08:28:47.504Z,4.50
2023-02-22T08:31:16.423Z,4.50
2023-02-22T08:33:49.537Z,4.50
2023-02-22T08:36:18.774Z,4.50
2023-02-22T08:38:47.366Z,4.50
2023-02-22T08:41:16.407Z,4.50
2023-02-22T08:43:45.320Z,4.50
2023-02-22T08:46:14.079Z,4.50
2023-02-22T08:48:51.662Z,4.60
2023-02-22T08:51:20.412Z,4.70
2023-02-22T08:53:49.052Z,4.50
2023-02-22T08:56:17.655Z,4.40
2023-02-22T08:58:46.301Z,4.40
2023-02-22T09:01:19.309Z,4.40
2023-02-22T09:03:52.308Z,4.30
2023-02-22T09:06:20.934Z,4.30
2023-02-22T09:08:49.724Z,4.30
2023-02-22T09:11:19.146Z,4.20
2023-02-22T09:13:47.836Z,4.10
2023-02-22T09:16:16.589Z,4.10
2023-02-22T09:18:45.612Z,4.10
2023-02-22T09:21:15.991Z,4.10
2023-02-22T09:23:44.817Z,4.20
2023-02-22T09:26:16.250Z,4.10
2023-02-22T09:28:44.828Z,4.10
2023-02-22T09:31:13.711Z,4.10
2023-02-22T09:33:43.077Z,4.00
2023-02-22T09:36:12.007Z,4.00
2023-02-22T09:38:42.093Z,4.00
2023-02-22T09:41:19.939Z,4.00
2023-02-22T09:43:57.615Z,3.80
2023-02-22T09:46:33.361Z,3.80
2023-02-22T09:49:07.287Z,3.80
2023-02-22T09:51:41.440Z,3.80
2023-02-22T09:54:24.157Z,3.70
2023-02-22T09:56:57.614Z,3.50
2023-02-22T09:59:33.110Z,3.10
2023-02-22T10:02:09.023Z,2.90
2023-02-22T10:04:43.462Z,2.50
2023-02-22T10:07:19.916Z,2.30
2023-02-22T10:09:51.680Z,2.20
2023-02-22T10:12:30.220Z,2.10
2023-02-22T10:15:27.607Z,2.10
2023-02-22T10:18:05.232Z,2.10
2023-02-22T10:20:52.676Z,2.00
2023-02-22T10:23:29.968Z,2.10
2023-02-22T10:26:12.689Z,2.00
2023-02-22T10:28:46.345Z,2.00
2023-02-22T10:32:06.985Z,2.10
2023-02-22T10:34:47.152Z,2.00
2023-02-22T10:37:27.777Z,1.90
2023-02-22T10:40:05.793Z,1.90
2023-02-22T10:42:36.031Z,1.90
2023-02-22T10:45:05.260Z,2.10
2023-02-22T10:47:35.331Z,2.20
2023-02-22T10:50:04.603Z,2.40
2023-02-22T10:52:35.020Z,2.60
2023-02-22T10:55:15.269Z,2.60
2023-02-22T10:57:49.967Z,2.70
2023-02-22T11:00:21.347Z,2.60
2023-02-22T11:02:54.969Z,2.50
2023-02-22T11:05:37.207Z,2.40
2023-02-22T11:08:26.228Z,2.30
2023-02-22T11:10:57.131Z,2.40
2023-02-22T11:13:30.218Z,2.60
2023-02-22T11:16:03.342Z,2.70
2023-02-22T11:18:35.418Z,2.70
2023-02-22T11:21:08.009Z,2.60
2023-02-22T11:23:45.045Z,2.60
2023-02-22T11:26:16.449Z,2.60
2023-02-22T11:28:49.708Z,2.70
2023-02-22T11:31:22.051Z,2.60
2023-02-22T11:33:58.277Z,2.50
2023-02-22T11:36:40.705Z,2.70
2023-02-22T11:39:24.607Z,2.70
2023-02-22T11:41:53.913Z,2.70
2023-02-22T11:44:37.829Z,2.80
2023-02-22T11:47:13.578Z,2.90
2023-02-22T11:49:46.096Z,3.10
2023-02-22T11:52:24.580Z,3.20
2023-02-22T11:55:36.431Z,3.50
2023-02-22T11:58:32.452Z,3.70
2023-02-22T12:01:10.273Z,3.70
2023-02-22T12:04:18.223Z,3.70
2023-02-22T12:06:54.014Z,3.80
2023-02-22T12:09:34.409Z,3.70
2023-02-22T12:12:15.040Z,3.60
2023-02-22T12:14:55.677Z,3.50
2023-02-22T12:17:48.169Z,3.60
2023-02-22T12:20:27.469Z,3.60
2023-02-22T12:23:07.026Z,3.70
2023-02-22T12:25:39.010Z,3.70
2023-02-22T12:28:24.740Z,3.70
2023-02-22T12:31:01.549Z,3.60
2023-02-22T12:33:45.511Z,3.60
2023-02-22T12:36:17.436Z,3.60
2023-02-22T12:38:52.424Z,3.60
2023-02-22T12:41:28.425Z,3.50
2023-02-22T12:44:04.685Z,3.70
2023-02-22T12:46:38.024Z,3.70
2023-02-22T12:49:17.921Z,3.80
2023-02-22T12:51:53.980Z,3.90
2023-02-22T12:54:26.784Z,3.90
2023-02-22T12:57:01.065Z,3.80
2023-02-22T12:59:35.000Z,3.80
2023-02-22T13:02:14.291Z,3.90
2023-02-22T13:04:44.420Z,4.00
2023-02-22T13:07:26.988Z,3.90
2023-02-22T13:10:26.563Z,3.80
2023-02-22T13:13:04.102Z,3.80
2023-02-22T13:15:42.855Z,3.70
2023-02-22T13:18:18.401Z,3.60
2023-02-22T13:20:54.011Z,3.60
2023-02-22T13:23:39.233Z,3.40
2023-02-22T13:26:16.740Z,3.30
2023-02-22T13:28:50.406Z,3.20
2023-02-22T13:31:39.299Z,3.20
2023-02-22T13:34:30.085Z,3.10
2023-02-22T13:37:22.717Z,3.10
2023-02-22T13:40:12.164Z,3.10
2023-02-22T13:43:00.088Z,3.00
2023-02-22T13:45:55.540Z,2.90
2023-02-22T13:48:37.727Z,2.80
2023-02-22T13:51:20.843Z,2.70
2023-02-22T13:53:57.037Z,2.80
2023-02-22T13:56:27.148Z,2.80
2023-02-22T13:58:58.591Z,2.80
2023-02-22T14:01:42.488Z,2.80
2023-02-22T14:04:37.328Z,2.80
2023-02-22T14:07:21.813Z,2.70
2023-02-22T14:09:54.146Z,2.60
2023-02-22T14:12:50.109Z,2.50
2023-02-22T14:15:30.862Z,2.40
2023-02-22T14:18:02.287Z,2.40
2023-02-22T14:20:35.165Z,2.30
2023-02-22T14:23:30.644Z,2.40
2023-02-22T14:26:12.719Z,2.40
2023-02-22T14:28:48.909Z,2.20
2023-02-22T14:31:34.911Z,2.10
2023-02-22T14:34:10.625Z,2.10
2023-02-22T14:36:47.862Z,2.00
2023-02-22T14:39:23.346Z,2.00
2023-02-22T14:42:01.646Z,2.10
2023-02-22T14:44:37.392Z,2.10
2023-02-22T14:47:09.341Z,2.10
2023-02-22T14:49:43.354Z,2.10
2023-02-22T14:52:22.813Z,2.10
2023-02-22T14:54:59.943Z,2.10
2023-02-22T14:57:39.345Z,2.00
2023-02-22T15:00:20.257Z,2.00
2023-02-22T15:02:50.136Z,1.90
2023-02-22T15:05:21.035Z,1.90
2023-02-22T15:07:54.986Z,1.90
2023-02-22T15:10:32.412Z,1.80
2023-02-22T15:13:11.152Z,1.90
2023-02-22T15:15:43.969Z,1.90
2023-02-22T15:18:25.060Z,1.80
2023-02-22T15:20:58.349Z,1.90
2023-02-22T15:23:31.025Z,1.80
2023-02-22T15:25:59.613Z,1.80
2023-02-22T15:28:32.346Z,1.80
2023-02-22T15:31:19.131Z,1.80
2023-02-22T15:33:48.447Z,1.70
2023-02-22T15:36:18.750Z,1.70
2023-02-22T15:38:52.059Z,1.70
2023-02-22T15:41:28.671Z,1.60
2023-02-22T15:44:14.231Z,1.70
2023-02-22T15:46:52.471Z,1.70
2023-02-22T15:49:24.744Z,1.70
2023-02-22T15:52:10.091Z,1.70
2023-02-22T15:54:41.967Z,1.40
2023-02-22T15:57:10.922Z,1.60
2023-02-22T15:59:48.332Z,1.60
2023-02-22T16:02:35.826Z,1.60
2023-02-22T16:05:08.602Z,1.70
2023-02-22T16:07:45.503Z,1.70
2023-02-22T16:10:30.146Z,1.70
2023-02-22T16:13:07.297Z,1.80
2023-02-22T16:15:38.780Z,1.80
2023-02-22T16:18:27.287Z,1.80
2023-02-22T16:21:04.401Z,1.70
2023-02-22T16:23:35.929Z,1.70
2023-02-22T16:26:20.582Z,1.70
2023-02-22T16:28:52.118Z,1.60
2023-02-22T16:31:26.974Z,1.60
2023-02-22T16:33:56.713Z,1.60
2023-02-22T16:36:38.981Z,1.60
2023-02-22T16:39:08.751Z,1.60
2023-02-22T16:41:38.152Z,1.60
2023-02-22T16:44:08.040Z,1.70
2023-02-22T16:46:38.227Z,1.70
2023-02-22T16:49:07.181Z,1.60
2023-02-22T16:51:42.960Z,1.60
2023-02-22T16:54:14.234Z,1.60
2023-02-22T16:56:43.191Z,1.70
2023-02-22T16:59:14.241Z,1.60
2023-02-22T17:01:44.677Z,1.70
2023-02-22T17:04:16.400Z,1.70
2023-02-22T17:06:45.102Z,1.70
2023-02-22T17:09:14.092Z,1.70
2023-02-22T17:11:43.122Z,1.70
2023-02-22T17:14:17.698Z,1.80
2023-02-22T17:16:47.954Z,1.70
2023-02-22T17:19:18.824Z,1.70
2023-02-22T17:21:50.494Z,1.70
2023-02-22T17:24:22.756Z,1.70
2023-02-22T17:26:52.188Z,1.70
2023-02-22T17:29:20.960Z,1.80
2023-02-22T17:31:51.253Z,1.80
2023-02-22T17:34:19.897Z,1.80
2023-02-22T17:36:48.736Z,1.80
2023-02-22T17:39:17.558Z,1.80
2023-02-22T17:41:46.227Z,1.70
2023-02-22T17:44:14.745Z,1.70
2023-02-22T17:46:43.422Z,1.70
2023-02-22T17:49:14.238Z,1.70
2023-02-22T17:51:43.211Z,1.70
2023-02-22T17:54:11.727Z,1.70
2023-02-22T17:56:41.626Z,1.80
2023-02-22T17:59:10.440Z,1.80
2023-02-22T18:01:44.158Z,1.70
2023-02-22T18:04:14.299Z,1.70
2023-02-22T18:06:43.068Z,1.60
2023-02-22T18:09:11.974Z,1.60
2023-02-22T18:11:41.331Z,1.50
2023-02-22T18:14:11.022Z,1.50
2023-02-22T18:16:39.880Z,1.50
2023-02-22T18:19:08.566Z,1.50
2023-02-22T18:21:38.919Z,1.50
2023-02-22T18:24:08.157Z,1.50
2023-02-22T18:26:39.345Z,1.50
2023-02-22T18:29:08.144Z,1.40
2023-02-22T18:31:36.869Z,1.40
2023-02-22T18:34:05.570Z,1.40
2023-02-22T18:36:34.838Z,1.40
2023-02-22T18:39:11.845Z,1.40
2023-02-22T18:41:40.554Z,1.40
2023-02-22T18:44:11.222Z,1.40
2023-02-22T18:46:39.928Z,1.40
2023-02-22T18:49:08.504Z,1.40
2023-02-22T18:51:37.092Z,1.40
2023-02-22T18:54:07.733Z,1.40
2023-02-22T18:56:36.297Z,1.40
2023-02-22T18:59:06.790Z,1.40
2023-02-22T19:01:38.897Z,1.40
2023-02-22T19:04:12.431Z,1.40
2023-02-22T19:06:43.534Z,1.30
2023-02-22T19:09:13.789Z,1.30
2023-02-22T19:11:45.139Z,1.30
2023-02-22T19:14:14.740Z,1.20
2023-02-22T19:16:46.634Z,1.10
2023-02-22T19:19:20.867Z,1.00
2023-02-22T19:21:49.902Z,0.90
2023-02-22T19:24:20.856Z,0.80
2023-02-22T19:26:50.995Z,0.80
2023-02-22T19:29:22.355Z,0.90
2023-02-22T19:31:52.000Z,0.90
2023-02-22T19:34:25.265Z,1.00
2023-02-22T19:36:53.918Z,0.90
2023-02-22T19:39:26.149Z,0.80
2023-02-22T19:41:54.932Z,0.70
2023-02-22T19:44:23.774Z,0.70
2023-02-22T19:46:55.333Z,0.80
2023-02-22T19:51:58.670Z,0.90
2023-02-22T19:54:51.134Z,0.90
2023-02-22T19:57:19.755Z,0.90
2023-02-22T19:59:52.948Z,0.90
2023-02-22T20:02:26.333Z,0.80
2023-02-22T20:04:55.472Z,0.90
2023-02-22T20:07:23.993Z,0.90
2023-02-22T20:09:53.947Z,0.80
2023-02-22T20:12:22.577Z,0.80
2023-02-22T20:14:51.194Z,0.80
2023-02-22T20:17:19.704Z,0.80
2023-02-22T20:19:49.097Z,0.80
2023-02-22T20:22:18.260Z,0.90
2023-02-22T20:24:47.688Z,0.90
2023-02-22T20:27:17.851Z,0.90
2023-02-22T20:29:46.349Z,0.90
2023-02-22T20:32:15.756Z,0.90
2023-02-22T20:34:47.498Z,0.90
2023-02-22T20:37:16.104Z,0.80
2023-02-22T20:39:44.875Z,0.90
2023-02-22T20:42:15.780Z,0.90
2023-02-22T20:44:46.352Z,0.90
2023-02-22T20:47:14.883Z,0.90
2023-02-22T20:49:43.407Z,1.00
2023-02-22T20:52:12.071Z,1.00
2023-02-22T20:54:40.899Z,1.10
2023-02-22T20:57:09.409Z,1.10
2023-02-22T20:59:38.059Z,1.00
2023-02-22T21:02:08.772Z,1.00
2023-02-22T21:04:37.360Z,1.00
2023-02-22T21:07:05.986Z,1.00
2023-02-22T21:09:34.720Z,1.00
2023-02-22T21:12:07.414Z,1.00
2023-02-22T21:14:37.518Z,1.00
2023-02-22T21:17:08.211Z,1.00
2023-02-22T21:19:36.846Z,1.10
2023-02-22T21:22:09.367Z,1.10
2023-02-22T21:24:38.532Z,1.10
2023-02-22T21:27:07.541Z,1.10
2023-02-22T21:29:36.638Z,1.10
2023-02-22T21:32:05.442Z,1.10
2023-02-22T21:35:10.227Z,1.20
2023-02-22T21:37:39.348Z,1.20
2023-02-22T21:40:19.332Z,1.10
2023-02-22T21:42:49.287Z,1.10
2023-02-22T21:45:19.161Z,1.10
2023-02-22T21:47:48.357Z,1.10
2023-02-22T21:50:19.992Z,1.10
2023-02-22T21:52:49.953Z,1.00
2023-02-22T21:55:19.555Z,1.00
2023-02-22T21:57:48.131Z,1.00
2023-02-22T22:00:29.230Z,1.00
2023-02-22T22:03:05.226Z,1.00
2023-02-22T22:05:35.282Z,1.00
2023-02-22T22:08:07.539Z,1.00
2023-02-22T22:10:37.740Z,1.00
2023-02-22T22:13:09.722Z,1.00
2023-02-22T22:15:38.441Z,1.00
2023-02-22T22:18:08.273Z,1.00
2023-02-22T22:20:39.277Z,1.00
2023-02-22T22:23:08.639Z,1.10
2023-02-22T22:25:38.997Z,1.10
2023-02-22T22:28:08.219Z,1.10
2023-02-22T22:30:37.418Z,1.00
2023-02-22T22:33:08.604Z,1.00
2023-02-22T22:35:41.980Z,1.00
2023-02-22T22:38:10.933Z,1.10
2023-02-22T22:40:40.120Z,1.00
2023-02-22T22:43:08.865Z,1.00
2023-02-22T22:45:39.717Z,1.00
2023-02-22T22:48:09.106Z,0.90
2023-02-22T22:50:39.033Z,1.00
2023-02-22T22:53:07.631Z,1.10
2023-02-22T22:55:40.997Z,1.00
2023-02-22T22:58:11.403Z,1.00
2023-02-22T23:00:41.758Z,0.90
2023-02-22T23:03:16.604Z,0.80
2023-02-22T23:05:47.028Z,0.80
2023-02-22T23:08:15.897Z,0.80
2023-02-22T23:10:44.455Z,0.90
2023-02-22T23:13:15.775Z,0.80
2023-02-22T23:15:47.806Z,0.80
2023-02-22T23:18:20.711Z,0.90
2023-02-22T23:20:55.489Z,0.80
2023-02-22T23:23:27.821Z,0.70
2023-02-22T23:26:04.054Z,0.70
2023-02-22T23:28:32.649Z,0.70
2023-02-22T23:31:03.456Z,0.70
2023-02-22T23:33:32.445Z,0.70
2023-02-22T23:36:04.593Z,0.60
2023-02-22T23:38:35.020Z,0.60
2023-02-22T23:41:04.876Z,0.50
2023-02-22T23:43:46.220Z,0.50
2023-02-22T23:46:18.777Z,0.50
2023-02-22T23:48:53.233Z,0.50
2023-02-22T23:51:25.818Z,0.40
2023-02-22T23:53:56.060Z,0.40
2023-02-22T23:56:26.770Z,0.20
2023-02-22T23:58:57.661Z,0.10
